sensor_id;sensor_type;location;lat;lon;timestamp;temperature;humidity
71668;DHT22;59504;54.806;9.640;2022-07-06T00:00:58;13.20;60.20
71668;DHT22;59504;54.806;9.640;2022-07-06T00:03:19;13.10;60.30
71668;DHT22;59504;54.806;9.640;2022-07-06T00:05:40;13.10;60.20
71668;DHT22;59504;54.806;9.640;2022-07-06T00:08:01;13.10;60.30
71668;DHT22;59504;54.806;9.640;2022-07-06T00:10:21;13.20;60.50
71668;DHT22;59504;54.806;9.640;2022-07-06T00:12:42;13.10;60.80
71668;DHT22;59504;54.806;9.640;2022-07-06T00:15:03;13.10;60.90
71668;DHT22;59504;54.806;9.640;2022-07-06T00:17:24;13.10;60.90
71668;DHT22;59504;54.806;9.640;2022-07-06T00:19:45;13.10;61.00
71668;DHT22;59504;54.806;9.640;2022-07-06T00:22:06;13.10;62.00
71668;DHT22;59504;54.806;9.640;2022-07-06T00:24:27;13.10;62.00
71668;DHT22;59504;54.806;9.640;2022-07-06T00:26:48;13.10;61.80
71668;DHT22;59504;54.806;9.640;2022-07-06T00:29:08;13.10;62.10
71668;DHT22;59504;54.806;9.640;2022-07-06T00:31:29;13.10;62.10
71668;DHT22;59504;54.806;9.640;2022-07-06T00:33:50;13.10;62.20
71668;DHT22;59504;54.806;9.640;2022-07-06T00:36:11;13.10;62.30
71668;DHT22;59504;54.806;9.640;2022-07-06T00:38:32;13.10;62.30
71668;DHT22;59504;54.806;9.640;2022-07-06T00:40:53;13.10;62.40
71668;DHT22;59504;54.806;9.640;2022-07-06T00:43:14;13.10;62.50
71668;DHT22;59504;54.806;9.640;2022-07-06T00:45:35;13.10;62.80
71668;DHT22;59504;54.806;9.640;2022-07-06T00:47:56;13.10;62.70
71668;DHT22;59504;54.806;9.640;2022-07-06T00:50:17;13.10;62.70
71668;DHT22;59504;54.806;9.640;2022-07-06T00:52:41;13.10;62.80
71668;DHT22;59504;54.806;9.640;2022-07-06T00:55:03;13.10;63.00
71668;DHT22;59504;54.806;9.640;2022-07-06T00:57:24;13.10;63.10
71668;DHT22;59504;54.806;9.640;2022-07-06T00:59:45;13.10;63.20
71668;DHT22;59504;54.806;9.640;2022-07-06T01:02:06;13.10;63.30
71668;DHT22;59504;54.806;9.640;2022-07-06T01:04:26;13.10;63.30
71668;DHT22;59504;54.806;9.640;2022-07-06T01:06:47;13.10;63.30
71668;DHT22;59504;54.806;9.640;2022-07-06T01:09:08;13.10;63.20
71668;DHT22;59504;54.806;9.640;2022-07-06T01:11:29;13.10;63.50
71668;DHT22;59504;54.806;9.640;2022-07-06T01:13:51;13.10;63.40
71668;DHT22;59504;54.806;9.640;2022-07-06T01:16:12;13.10;63.40
71668;DHT22;59504;54.806;9.640;2022-07-06T01:18:33;13.10;63.40
71668;DHT22;59504;54.806;9.640;2022-07-06T01:21:07;13.10;63.20
71668;DHT22;59504;54.806;9.640;2022-07-06T01:23:28;13.10;63.50
71668;DHT22;59504;54.806;9.640;2022-07-06T01:25:49;13.10;63.80
71668;DHT22;59504;54.806;9.640;2022-07-06T01:28:10;13.10;64.00
71668;DHT22;59504;54.806;9.640;2022-07-06T01:30:31;13.10;64.10
71668;DHT22;59504;54.806;9.640;2022-07-06T01:32:52;13.10;64.60
71668;DHT22;59504;54.806;9.640;2022-07-06T01:35:13;13.10;64.70
71668;DHT22;59504;54.806;9.640;2022-07-06T01:37:34;13.10;64.50
71668;DHT22;59504;54.806;9.640;2022-07-06T01:39:58;13.10;64.20
71668;DHT22;59504;54.806;9.640;2022-07-06T01:42:20;13.10;64.40
71668;DHT22;59504;54.806;9.640;2022-07-06T01:44:41;13.10;64.70
71668;DHT22;59504;54.806;9.640;2022-07-06T01:47:02;13.10;64.80
71668;DHT22;59504;54.806;9.640;2022-07-06T01:49:23;13.10;64.70
71668;DHT22;59504;54.806;9.640;2022-07-06T01:51:43;13.10;64.50
71668;DHT22;59504;54.806;9.640;2022-07-06T01:54:04;13.10;64.40
71668;DHT22;59504;54.806;9.640;2022-07-06T01:56:25;13.10;64.20
71668;DHT22;59504;54.806;9.640;2022-07-06T01:58:46;13.10;65.10
71668;DHT22;59504;54.806;9.640;2022-07-06T02:01:08;13.10;65.00
71668;DHT22;59504;54.806;9.640;2022-07-06T02:03:29;13.00;65.40
71668;DHT22;59504;54.806;9.640;2022-07-06T02:05:50;13.00;66.10
71668;DHT22;59504;54.806;9.640;2022-07-06T02:08:12;13.00;65.80
71668;DHT22;59504;54.806;9.640;2022-07-06T02:10:33;13.00;65.90
71668;DHT22;59504;54.806;9.640;2022-07-06T02:12:53;13.00;66.50
71668;DHT22;59504;54.806;9.640;2022-07-06T02:15:14;13.00;66.10
71668;DHT22;59504;54.806;9.640;2022-07-06T02:17:35;12.90;65.80
71668;DHT22;59504;54.806;9.640;2022-07-06T02:19:56;12.90;65.80
71668;DHT22;59504;54.806;9.640;2022-07-06T02:22:17;12.90;66.70
71668;DHT22;59504;54.806;9.640;2022-07-06T02:24:38;13.00;66.30
71668;DHT22;59504;54.806;9.640;2022-07-06T02:26:59;12.90;65.80
71668;DHT22;59504;54.806;9.640;2022-07-06T02:29:19;12.90;65.10
71668;DHT22;59504;54.806;9.640;2022-07-06T02:31:40;12.90;65.00
71668;DHT22;59504;54.806;9.640;2022-07-06T02:34:01;12.90;65.50
71668;DHT22;59504;54.806;9.640;2022-07-06T02:36:22;12.90;66.00
71668;DHT22;59504;54.806;9.640;2022-07-06T02:38:43;12.90;66.70
71668;DHT22;59504;54.806;9.640;2022-07-06T02:41:04;12.90;66.40
71668;DHT22;59504;54.806;9.640;2022-07-06T02:43:25;12.80;66.00
71668;DHT22;59504;54.806;9.640;2022-07-06T02:45:45;12.80;65.80
71668;DHT22;59504;54.806;9.640;2022-07-06T02:48:06;12.80;65.90
71668;DHT22;59504;54.806;9.640;2022-07-06T02:50:27;12.80;66.40
71668;DHT22;59504;54.806;9.640;2022-07-06T02:52:48;12.70;66.30
71668;DHT22;59504;54.806;9.640;2022-07-06T02:55:09;12.80;65.20
71668;DHT22;59504;54.806;9.640;2022-07-06T02:57:30;12.80;65.30
71668;DHT22;59504;54.806;9.640;2022-07-06T02:59:50;12.70;65.30
71668;DHT22;59504;54.806;9.640;2022-07-06T03:02:11;12.70;65.40
71668;DHT22;59504;54.806;9.640;2022-07-06T03:04:32;12.70;65.10
71668;DHT22;59504;54.806;9.640;2022-07-06T03:06:53;12.70;65.30
71668;DHT22;59504;54.806;9.640;2022-07-06T03:09:14;12.70;65.60
71668;DHT22;59504;54.806;9.640;2022-07-06T03:11:35;12.70;65.40
71668;DHT22;59504;54.806;9.640;2022-07-06T03:13:56;12.70;65.10
71668;DHT22;59504;54.806;9.640;2022-07-06T03:16:17;12.70;65.00
71668;DHT22;59504;54.806;9.640;2022-07-06T03:18:38;12.70;65.10
71668;DHT22;59504;54.806;9.640;2022-07-06T03:20:59;12.70;65.20
71668;DHT22;59504;54.806;9.640;2022-07-06T03:23:21;12.70;65.10
71668;DHT22;59504;54.806;9.640;2022-07-06T03:25:42;12.60;64.80
71668;DHT22;59504;54.806;9.640;2022-07-06T03:28:03;12.70;64.90
71668;DHT22;59504;54.806;9.640;2022-07-06T03:30:24;12.70;65.00
71668;DHT22;59504;54.806;9.640;2022-07-06T03:32:44;12.70;65.20
71668;DHT22;59504;54.806;9.640;2022-07-06T03:35:05;12.60;65.40
71668;DHT22;59504;54.806;9.640;2022-07-06T03:37:27;12.70;65.30
71668;DHT22;59504;54.806;9.640;2022-07-06T03:39:48;12.70;65.40
71668;DHT22;59504;54.806;9.640;2022-07-06T03:42:09;12.60;65.30
71668;DHT22;59504;54.806;9.640;2022-07-06T03:44:30;12.70;65.40
71668;DHT22;59504;54.806;9.640;2022-07-06T03:46:50;12.70;65.50
71668;DHT22;59504;54.806;9.640;2022-07-06T03:49:13;12.70;65.60
71668;DHT22;59504;54.806;9.640;2022-07-06T03:51:34;12.70;65.60
71668;DHT22;59504;54.806;9.640;2022-07-06T03:53:55;12.70;65.70
71668;DHT22;59504;54.806;9.640;2022-07-06T03:56:16;12.70;65.80
71668;DHT22;59504;54.806;9.640;2022-07-06T03:58:49;12.70;65.90
71668;DHT22;59504;54.806;9.640;2022-07-06T04:01:10;12.70;65.90
71668;DHT22;59504;54.806;9.640;2022-07-06T04:03:30;12.70;66.30
71668;DHT22;59504;54.806;9.640;2022-07-06T04:05:52;12.70;66.30
71668;DHT22;59504;54.806;9.640;2022-07-06T04:08:12;12.70;66.40
71668;DHT22;59504;54.806;9.640;2022-07-06T04:10:33;12.80;66.40
71668;DHT22;59504;54.806;9.640;2022-07-06T04:12:54;12.80;66.50
71668;DHT22;59504;54.806;9.640;2022-07-06T04:15:15;12.80;66.60
71668;DHT22;59504;54.806;9.640;2022-07-06T04:17:36;12.80;66.50
71668;DHT22;59504;54.806;9.640;2022-07-06T04:20:16;12.80;66.90
71668;DHT22;59504;54.806;9.640;2022-07-06T04:22:38;12.80;67.30
71668;DHT22;59504;54.806;9.640;2022-07-06T04:24:58;12.90;67.30
71668;DHT22;59504;54.806;9.640;2022-07-06T04:27:19;12.90;67.30
71668;DHT22;59504;54.806;9.640;2022-07-06T04:29:40;12.90;67.90
71668;DHT22;59504;54.806;9.640;2022-07-06T04:32:01;12.90;68.20
71668;DHT22;59504;54.806;9.640;2022-07-06T04:34:22;13.00;68.10
71668;DHT22;59504;54.806;9.640;2022-07-06T04:36:43;13.00;68.30
71668;DHT22;59504;54.806;9.640;2022-07-06T04:39:04;13.10;68.50
71668;DHT22;59504;54.806;9.640;2022-07-06T04:41:25;13.20;68.40
71668;DHT22;59504;54.806;9.640;2022-07-06T04:43:46;13.20;69.40
71668;DHT22;59504;54.806;9.640;2022-07-06T04:46:06;13.40;70.30
71668;DHT22;59504;54.806;9.640;2022-07-06T04:48:27;13.50;71.50
71668;DHT22;59504;54.806;9.640;2022-07-06T04:50:48;13.60;70.40
71668;DHT22;59504;54.806;9.640;2022-07-06T04:53:09;13.70;70.30
71668;DHT22;59504;54.806;9.640;2022-07-06T04:55:30;13.90;72.10
71668;DHT22;59504;54.806;9.640;2022-07-06T04:57:51;13.90;72.80
71668;DHT22;59504;54.806;9.640;2022-07-06T05:00:15;14.00;71.80
71668;DHT22;59504;54.806;9.640;2022-07-06T05:02:36;14.20;71.60
71668;DHT22;59504;54.806;9.640;2022-07-06T05:04:57;14.30;71.70
71668;DHT22;59504;54.806;9.640;2022-07-06T05:07:18;14.30;70.60
71668;DHT22;59504;54.806;9.640;2022-07-06T05:09:39;14.40;71.00
71668;DHT22;59504;54.806;9.640;2022-07-06T05:12:00;14.50;71.30
71668;DHT22;59504;54.806;9.640;2022-07-06T05:14:21;14.60;71.20
71668;DHT22;59504;54.806;9.640;2022-07-06T05:16:41;14.70;70.90
71668;DHT22;59504;54.806;9.640;2022-07-06T05:19:02;14.80;70.60
71668;DHT22;59504;54.806;9.640;2022-07-06T05:21:23;15.00;71.00
71668;DHT22;59504;54.806;9.640;2022-07-06T05:23:45;15.00;70.20
71668;DHT22;59504;54.806;9.640;2022-07-06T05:26:06;15.10;69.80
71668;DHT22;59504;54.806;9.640;2022-07-06T05:28:27;15.20;69.20
71668;DHT22;59504;54.806;9.640;2022-07-06T05:30:48;15.30;68.20
71668;DHT22;59504;54.806;9.640;2022-07-06T05:33:09;15.30;67.70
71668;DHT22;59504;54.806;9.640;2022-07-06T05:35:30;15.40;67.20
71668;DHT22;59504;54.806;9.640;2022-07-06T05:37:51;15.50;67.10
71668;DHT22;59504;54.806;9.640;2022-07-06T05:40:12;15.50;66.50
71668;DHT22;59504;54.806;9.640;2022-07-06T05:42:33;15.60;66.20
71668;DHT22;59504;54.806;9.640;2022-07-06T05:44:55;15.60;66.00
71668;DHT22;59504;54.806;9.640;2022-07-06T05:47:16;15.70;65.50
71668;DHT22;59504;54.806;9.640;2022-07-06T05:49:56;15.70;64.40
71668;DHT22;59504;54.806;9.640;2022-07-06T05:52:38;15.80;64.40
71668;DHT22;59504;54.806;9.640;2022-07-06T05:54:59;15.80;64.40
71668;DHT22;59504;54.806;9.640;2022-07-06T05:57:20;15.90;64.00
71668;DHT22;59504;54.806;9.640;2022-07-06T05:59:41;15.90;63.50
71668;DHT22;59504;54.806;9.640;2022-07-06T06:02:02;15.90;63.00
71668;DHT22;59504;54.806;9.640;2022-07-06T06:04:23;16.00;63.00
71668;DHT22;59504;54.806;9.640;2022-07-06T06:06:44;16.00;62.40
71668;DHT22;59504;54.806;9.640;2022-07-06T06:09:05;16.00;61.60
71668;DHT22;59504;54.806;9.640;2022-07-06T06:11:26;16.10;62.00
71668;DHT22;59504;54.806;9.640;2022-07-06T06:13:46;16.10;61.90
71668;DHT22;59504;54.806;9.640;2022-07-06T06:16:07;16.10;61.50
71668;DHT22;59504;54.806;9.640;2022-07-06T06:18:28;16.10;61.60
71668;DHT22;59504;54.806;9.640;2022-07-06T06:20:49;16.10;61.30
71668;DHT22;59504;54.806;9.640;2022-07-06T06:23:10;16.10;61.30
71668;DHT22;59504;54.806;9.640;2022-07-06T06:25:32;16.10;61.10
71668;DHT22;59504;54.806;9.640;2022-07-06T06:27:53;16.10;60.60
71668;DHT22;59504;54.806;9.640;2022-07-06T06:30:14;16.10;60.30
71668;DHT22;59504;54.806;9.640;2022-07-06T06:32:35;16.10;60.40
71668;DHT22;59504;54.806;9.640;2022-07-06T06:34:56;16.00;60.30
71668;DHT22;59504;54.806;9.640;2022-07-06T06:37:17;16.00;60.30
71668;DHT22;59504;54.806;9.640;2022-07-06T06:39:38;16.00;60.40
71668;DHT22;59504;54.806;9.640;2022-07-06T06:41:59;15.90;60.10
71668;DHT22;59504;54.806;9.640;2022-07-06T06:44:20;15.90;60.30
71668;DHT22;59504;54.806;9.640;2022-07-06T06:46:43;15.80;60.40
71668;DHT22;59504;54.806;9.640;2022-07-06T06:49:04;15.80;60.50
71668;DHT22;59504;54.806;9.640;2022-07-06T06:51:26;15.80;60.70
71668;DHT22;59504;54.806;9.640;2022-07-06T06:53:47;15.80;60.70
71668;DHT22;59504;54.806;9.640;2022-07-06T06:56:08;15.80;60.80
71668;DHT22;59504;54.806;9.640;2022-07-06T06:58:29;15.80;61.40
71668;DHT22;59504;54.806;9.640;2022-07-06T07:00:50;15.70;61.50
71668;DHT22;59504;54.806;9.640;2022-07-06T07:03:11;15.80;61.70
71668;DHT22;59504;54.806;9.640;2022-07-06T07:05:32;15.80;61.80
71668;DHT22;59504;54.806;9.640;2022-07-06T07:07:53;15.90;62.00
71668;DHT22;59504;54.806;9.640;2022-07-06T07:10:15;15.90;62.10
71668;DHT22;59504;54.806;9.640;2022-07-06T07:12:41;16.00;62.30
71668;DHT22;59504;54.806;9.640;2022-07-06T07:15:02;16.00;62.40
71668;DHT22;59504;54.806;9.640;2022-07-06T07:17:23;16.10;62.50
71668;DHT22;59504;54.806;9.640;2022-07-06T07:19:44;16.20;61.40
71668;DHT22;59504;54.806;9.640;2022-07-06T07:22:05;16.30;61.90
71668;DHT22;59504;54.806;9.640;2022-07-06T07:24:26;16.40;61.90
71668;DHT22;59504;54.806;9.640;2022-07-06T07:26:47;16.40;61.60
71668;DHT22;59504;54.806;9.640;2022-07-06T07:29:08;16.50;61.30
71668;DHT22;59504;54.806;9.640;2022-07-06T07:31:29;16.60;61.30
71668;DHT22;59504;54.806;9.640;2022-07-06T07:33:50;16.60;60.80
71668;DHT22;59504;54.806;9.640;2022-07-06T07:36:11;16.60;60.60
71668;DHT22;59504;54.806;9.640;2022-07-06T07:38:32;16.70;60.50
71668;DHT22;59504;54.806;9.640;2022-07-06T07:40:53;16.70;60.30
71668;DHT22;59504;54.806;9.640;2022-07-06T07:43:14;16.70;60.00
71668;DHT22;59504;54.806;9.640;2022-07-06T07:45:35;16.70;60.20
71668;DHT22;59504;54.806;9.640;2022-07-06T07:47:56;16.80;60.10
71668;DHT22;59504;54.806;9.640;2022-07-06T07:50:16;16.70;60.10
71668;DHT22;59504;54.806;9.640;2022-07-06T07:52:38;16.80;60.40
71668;DHT22;59504;54.806;9.640;2022-07-06T07:54:59;16.80;60.70
71668;DHT22;59504;54.806;9.640;2022-07-06T07:57:20;16.90;61.00
71668;DHT22;59504;54.806;9.640;2022-07-06T07:59:41;16.90;60.70
71668;DHT22;59504;54.806;9.640;2022-07-06T08:02:02;17.00;60.50
71668;DHT22;59504;54.806;9.640;2022-07-06T08:04:23;17.10;60.30
71668;DHT22;59504;54.806;9.640;2022-07-06T08:06:44;17.10;60.00
71668;DHT22;59504;54.806;9.640;2022-07-06T08:09:05;17.10;59.90
71668;DHT22;59504;54.806;9.640;2022-07-06T08:11:28;17.20;59.80
71668;DHT22;59504;54.806;9.640;2022-07-06T08:13:49;17.20;59.80
71668;DHT22;59504;54.806;9.640;2022-07-06T08:16:09;17.20;59.70
71668;DHT22;59504;54.806;9.640;2022-07-06T08:18:30;17.30;58.60
71668;DHT22;59504;54.806;9.640;2022-07-06T08:20:51;17.30;58.70
71668;DHT22;59504;54.806;9.640;2022-07-06T08:23:13;17.40;58.80
71668;DHT22;59504;54.806;9.640;2022-07-06T08:25:34;17.40;58.00
71668;DHT22;59504;54.806;9.640;2022-07-06T08:27:55;17.40;56.50
71668;DHT22;59504;54.806;9.640;2022-07-06T08:30:16;17.40;55.80
71668;DHT22;59504;54.806;9.640;2022-07-06T08:32:37;17.40;56.10
71668;DHT22;59504;54.806;9.640;2022-07-06T08:34:59;17.40;55.80
71668;DHT22;59504;54.806;9.640;2022-07-06T08:37:20;17.40;55.80
71668;DHT22;59504;54.806;9.640;2022-07-06T08:39:40;17.40;56.20
71668;DHT22;59504;54.806;9.640;2022-07-06T08:42:01;17.40;56.30
71668;DHT22;59504;54.806;9.640;2022-07-06T08:44:22;17.40;56.20
71668;DHT22;59504;54.806;9.640;2022-07-06T08:46:44;17.50;56.20
71668;DHT22;59504;54.806;9.640;2022-07-06T08:49:08;17.50;56.30
71668;DHT22;59504;54.806;9.640;2022-07-06T08:51:33;17.60;55.60
71668;DHT22;59504;54.806;9.640;2022-07-06T08:53:55;17.60;54.50
71668;DHT22;59504;54.806;9.640;2022-07-06T08:56:16;17.70;54.80
71668;DHT22;59504;54.806;9.640;2022-07-06T08:58:39;17.70;53.70
71668;DHT22;59504;54.806;9.640;2022-07-06T09:01:02;17.80;54.50
71668;DHT22;59504;54.806;9.640;2022-07-06T09:03:24;17.80;53.40
71668;DHT22;59504;54.806;9.640;2022-07-06T09:05:45;17.80;53.30
71668;DHT22;59504;54.806;9.640;2022-07-06T09:08:06;17.90;52.80
71668;DHT22;59504;54.806;9.640;2022-07-06T09:10:27;17.90;53.10
71668;DHT22;59504;54.806;9.640;2022-07-06T09:12:48;18.00;52.50
71668;DHT22;59504;54.806;9.640;2022-07-06T09:15:09;18.00;52.00
71668;DHT22;59504;54.806;9.640;2022-07-06T09:17:30;18.10;52.00
71668;DHT22;59504;54.806;9.640;2022-07-06T09:19:51;18.10;50.90
71668;DHT22;59504;54.806;9.640;2022-07-06T09:22:24;18.20;50.90
71668;DHT22;59504;54.806;9.640;2022-07-06T09:24:45;18.20;51.80
71668;DHT22;59504;54.806;9.640;2022-07-06T09:27:06;18.30;51.30
71668;DHT22;59504;54.806;9.640;2022-07-06T09:29:27;18.30;51.30
71668;DHT22;59504;54.806;9.640;2022-07-06T09:31:55;18.40;51.70
71668;DHT22;59504;54.806;9.640;2022-07-06T09:34:16;18.50;51.40
71668;DHT22;59504;54.806;9.640;2022-07-06T09:36:44;18.50;51.50
71668;DHT22;59504;54.806;9.640;2022-07-06T09:39:15;18.60;51.80
71668;DHT22;59504;54.806;9.640;2022-07-06T09:41:37;18.60;50.10
71668;DHT22;59504;54.806;9.640;2022-07-06T09:43:57;18.70;50.60
71668;DHT22;59504;54.806;9.640;2022-07-06T09:46:18;18.70;50.20
71668;DHT22;59504;54.806;9.640;2022-07-06T09:48:40;18.70;50.50
71668;DHT22;59504;54.806;9.640;2022-07-06T09:51:02;18.70;50.70
71668;DHT22;59504;54.806;9.640;2022-07-06T09:53:24;18.70;49.50
71668;DHT22;59504;54.806;9.640;2022-07-06T09:55:46;18.80;49.60
71668;DHT22;59504;54.806;9.640;2022-07-06T09:58:07;18.80;49.40
71668;DHT22;59504;54.806;9.640;2022-07-06T10:00:28;18.80;48.90
71668;DHT22;59504;54.806;9.640;2022-07-06T10:02:49;18.80;50.00
71668;DHT22;59504;54.806;9.640;2022-07-06T10:05:11;18.80;49.40
71668;DHT22;59504;54.806;9.640;2022-07-06T10:07:32;18.70;49.60
71668;DHT22;59504;54.806;9.640;2022-07-06T10:09:53;18.70;49.70
71668;DHT22;59504;54.806;9.640;2022-07-06T10:12:14;18.70;49.20
71668;DHT22;59504;54.806;9.640;2022-07-06T10:14:36;18.70;49.60
71668;DHT22;59504;54.806;9.640;2022-07-06T10:16:59;18.70;49.10
71668;DHT22;59504;54.806;9.640;2022-07-06T10:19:20;18.70;48.20
71668;DHT22;59504;54.806;9.640;2022-07-06T10:21:42;18.70;48.50
71668;DHT22;59504;54.806;9.640;2022-07-06T10:24:04;18.70;48.80
71668;DHT22;59504;54.806;9.640;2022-07-06T10:26:25;18.60;48.60
71668;DHT22;59504;54.806;9.640;2022-07-06T10:28:47;18.60;48.40
71668;DHT22;59504;54.806;9.640;2022-07-06T10:31:08;18.60;49.00
71668;DHT22;59504;54.806;9.640;2022-07-06T10:33:30;18.70;49.20
71668;DHT22;59504;54.806;9.640;2022-07-06T10:35:51;18.70;49.00
71668;DHT22;59504;54.806;9.640;2022-07-06T10:38:12;18.80;48.70
71668;DHT22;59504;54.806;9.640;2022-07-06T10:40:34;18.80;48.90
71668;DHT22;59504;54.806;9.640;2022-07-06T10:43:13;18.90;49.00
71668;DHT22;59504;54.806;9.640;2022-07-06T10:50:35;19.10;46.60
71668;DHT22;59504;54.806;9.640;2022-07-06T10:52:59;19.10;46.70
71668;DHT22;59504;54.806;9.640;2022-07-06T10:55:29;19.00;46.20
71668;DHT22;59504;54.806;9.640;2022-07-06T10:57:53;19.00;46.90
71668;DHT22;59504;54.806;9.640;2022-07-06T11:00:14;18.90;47.00
71668;DHT22;59504;54.806;9.640;2022-07-06T11:02:38;18.90;47.10
71668;DHT22;59504;54.806;9.640;2022-07-06T11:04:59;18.80;47.00
71668;DHT22;59504;54.806;9.640;2022-07-06T11:07:20;18.80;47.50
71668;DHT22;59504;54.806;9.640;2022-07-06T11:09:41;18.80;47.50
71668;DHT22;59504;54.806;9.640;2022-07-06T11:12:11;18.80;47.30
71668;DHT22;59504;54.806;9.640;2022-07-06T11:14:35;18.80;47.60
71668;DHT22;59504;54.806;9.640;2022-07-06T11:19:22;18.90;47.00
71668;DHT22;59504;54.806;9.640;2022-07-06T11:21:50;19.00;46.60
71668;DHT22;59504;54.806;9.640;2022-07-06T11:24:31;19.00;46.70
71668;DHT22;59504;54.806;9.640;2022-07-06T11:26:53;19.10;46.60
71668;DHT22;59504;54.806;9.640;2022-07-06T11:29:16;19.10;45.00
71668;DHT22;59504;54.806;9.640;2022-07-06T11:31:38;19.20;45.70
71668;DHT22;59504;54.806;9.640;2022-07-06T11:33:59;19.20;43.60
71668;DHT22;59504;54.806;9.640;2022-07-06T11:36:21;19.30;44.80
71668;DHT22;59504;54.806;9.640;2022-07-06T11:38:43;19.30;45.20
71668;DHT22;59504;54.806;9.640;2022-07-06T11:41:04;19.30;44.60
71668;DHT22;59504;54.806;9.640;2022-07-06T11:43:25;19.30;43.80
71668;DHT22;59504;54.806;9.640;2022-07-06T11:45:45;19.30;43.60
71668;DHT22;59504;54.806;9.640;2022-07-06T11:48:10;19.30;43.40
71668;DHT22;59504;54.806;9.640;2022-07-06T11:50:31;19.30;43.70
71668;DHT22;59504;54.806;9.640;2022-07-06T11:52:52;19.20;44.10
71668;DHT22;59504;54.806;9.640;2022-07-06T11:55:16;19.20;44.40
71668;DHT22;59504;54.806;9.640;2022-07-06T11:57:37;19.10;44.40
71668;DHT22;59504;54.806;9.640;2022-07-06T11:59:58;19.10;44.90
71668;DHT22;59504;54.806;9.640;2022-07-06T12:02:19;19.10;45.40
71668;DHT22;59504;54.806;9.640;2022-07-06T12:04:41;19.10;46.10
71668;DHT22;59504;54.806;9.640;2022-07-06T12:07:03;19.10;46.70
71668;DHT22;59504;54.806;9.640;2022-07-06T12:09:24;19.10;47.20
71668;DHT22;59504;54.806;9.640;2022-07-06T12:11:45;19.20;46.80
71668;DHT22;59504;54.806;9.640;2022-07-06T12:14:17;19.20;47.00
71668;DHT22;59504;54.806;9.640;2022-07-06T12:16:38;19.20;46.80
71668;DHT22;59504;54.806;9.640;2022-07-06T12:19:00;19.20;46.70
71668;DHT22;59504;54.806;9.640;2022-07-06T12:21:21;19.20;46.50
71668;DHT22;59504;54.806;9.640;2022-07-06T12:23:46;19.20;46.30
71668;DHT22;59504;54.806;9.640;2022-07-06T12:26:07;19.10;46.40
71668;DHT22;59504;54.806;9.640;2022-07-06T12:28:29;19.10;46.30
71668;DHT22;59504;54.806;9.640;2022-07-06T12:30:49;19.00;46.30
71668;DHT22;59504;54.806;9.640;2022-07-06T12:33:16;19.00;46.60
71668;DHT22;59504;54.806;9.640;2022-07-06T12:35:41;19.00;46.40
71668;DHT22;59504;54.806;9.640;2022-07-06T12:38:02;18.90;46.80
71668;DHT22;59504;54.806;9.640;2022-07-06T12:40:25;18.90;47.00
71668;DHT22;59504;54.806;9.640;2022-07-06T12:42:46;18.80;46.90
71668;DHT22;59504;54.806;9.640;2022-07-06T12:45:07;18.80;47.10
71668;DHT22;59504;54.806;9.640;2022-07-06T12:47:28;18.80;47.20
71668;DHT22;59504;54.806;9.640;2022-07-06T12:50:03;18.80;47.30
71668;DHT22;59504;54.806;9.640;2022-07-06T12:52:28;18.80;46.90
71668;DHT22;59504;54.806;9.640;2022-07-06T12:54:49;18.80;47.00
71668;DHT22;59504;54.806;9.640;2022-07-06T12:57:11;18.90;47.60
71668;DHT22;59504;54.806;9.640;2022-07-06T12:59:34;19.00;47.40
71668;DHT22;59504;54.806;9.640;2022-07-06T13:01:55;19.00;47.20
71668;DHT22;59504;54.806;9.640;2022-07-06T13:04:17;19.10;47.60
71668;DHT22;59504;54.806;9.640;2022-07-06T13:06:38;19.20;46.80
71668;DHT22;59504;54.806;9.640;2022-07-06T13:08:59;19.20;46.60
71668;DHT22;59504;54.806;9.640;2022-07-06T13:11:19;19.20;46.60
71668;DHT22;59504;54.806;9.640;2022-07-06T13:13:44;19.20;46.00
71668;DHT22;59504;54.806;9.640;2022-07-06T13:16:05;19.20;46.30
71668;DHT22;59504;54.806;9.640;2022-07-06T13:18:26;19.30;46.50
71668;DHT22;59504;54.806;9.640;2022-07-06T13:20:46;19.30;46.70
71668;DHT22;59504;54.806;9.640;2022-07-06T13:23:07;19.30;46.80
71668;DHT22;59504;54.806;9.640;2022-07-06T13:25:28;19.40;46.90
71668;DHT22;59504;54.806;9.640;2022-07-06T13:27:49;19.40;47.00
71668;DHT22;59504;54.806;9.640;2022-07-06T13:30:10;19.40;46.60
71668;DHT22;59504;54.806;9.640;2022-07-06T13:32:31;19.40;46.70
71668;DHT22;59504;54.806;9.640;2022-07-06T13:34:53;19.40;46.90
71668;DHT22;59504;54.806;9.640;2022-07-06T13:37:14;19.40;47.10
71668;DHT22;59504;54.806;9.640;2022-07-06T13:39:35;19.50;47.20
71668;DHT22;59504;54.806;9.640;2022-07-06T13:41:55;19.50;46.70
71668;DHT22;59504;54.806;9.640;2022-07-06T13:44:16;19.60;45.40
71668;DHT22;59504;54.806;9.640;2022-07-06T13:46:38;19.70;44.30
71668;DHT22;59504;54.806;9.640;2022-07-06T13:49:05;19.70;44.90
71668;DHT22;59504;54.806;9.640;2022-07-06T13:51:26;19.80;44.70
71668;DHT22;59504;54.806;9.640;2022-07-06T13:53:49;19.90;44.80
71668;DHT22;59504;54.806;9.640;2022-07-06T13:56:10;19.90;44.80
71668;DHT22;59504;54.806;9.640;2022-07-06T13:58:31;19.90;43.50
71668;DHT22;59504;54.806;9.640;2022-07-06T14:00:53;19.90;43.70
71668;DHT22;59504;54.806;9.640;2022-07-06T14:03:14;19.90;43.40
71668;DHT22;59504;54.806;9.640;2022-07-06T14:05:35;19.80;43.10
71668;DHT22;59504;54.806;9.640;2022-07-06T14:07:56;19.80;43.50
71668;DHT22;59504;54.806;9.640;2022-07-06T14:10:17;19.80;44.00
71668;DHT22;59504;54.806;9.640;2022-07-06T14:12:38;19.70;44.10
71668;DHT22;59504;54.806;9.640;2022-07-06T14:14:59;19.70;44.20
71668;DHT22;59504;54.806;9.640;2022-07-06T14:17:20;19.60;44.40
71668;DHT22;59504;54.806;9.640;2022-07-06T14:19:40;19.60;44.10
71668;DHT22;59504;54.806;9.640;2022-07-06T14:22:01;19.60;44.40
71668;DHT22;59504;54.806;9.640;2022-07-06T14:24:22;19.50;44.60
71668;DHT22;59504;54.806;9.640;2022-07-06T14:26:43;19.40;43.70
71668;DHT22;59504;54.806;9.640;2022-07-06T14:29:04;19.40;44.00
71668;DHT22;59504;54.806;9.640;2022-07-06T14:31:25;19.40;44.40
71668;DHT22;59504;54.806;9.640;2022-07-06T14:33:46;19.30;44.90
71668;DHT22;59504;54.806;9.640;2022-07-06T14:36:07;19.40;45.40
71668;DHT22;59504;54.806;9.640;2022-07-06T14:38:28;19.40;45.80
71668;DHT22;59504;54.806;9.640;2022-07-06T14:40:49;19.40;45.60
71668;DHT22;59504;54.806;9.640;2022-07-06T14:43:10;19.40;45.80
71668;DHT22;59504;54.806;9.640;2022-07-06T14:45:31;19.50;45.80
71668;DHT22;59504;54.806;9.640;2022-07-06T14:47:53;19.40;45.60
71668;DHT22;59504;54.806;9.640;2022-07-06T14:50:14;19.40;45.60
71668;DHT22;59504;54.806;9.640;2022-07-06T14:52:35;19.40;45.10
71668;DHT22;59504;54.806;9.640;2022-07-06T14:54:56;19.40;45.10
71668;DHT22;59504;54.806;9.640;2022-07-06T14:57:20;19.30;45.20
71668;DHT22;59504;54.806;9.640;2022-07-06T14:59:41;19.30;45.60
71668;DHT22;59504;54.806;9.640;2022-07-06T15:02:02;19.30;45.80